sensor_id;sensor_type;location;lat;lon;timestamp;pressure;altitude;pressure_sealevel;temperature;humidity
49779;BME280;36217;60.232;24.776;2022-10-16T00:01:21;100822.31;;;10.82;100.00
49779;BME280;36217;60.232;24.776;2022-10-16T00:03:49;100822.98;;;10.59;100.00
49779;BME280;36217;60.232;24.776;2022-10-16T00:06:18;100817.25;;;10.84;100.00
49779;BME280;36217;60.232;24.776;2022-10-16T00:08:46;100812.96;;;11.07;100.00
49779;BME280;36217;60.232;24.776;2022-10-16T00:11:15;100812.41;;;10.78;100.00
49779;BME280;36217;60.232;24.776;2022-10-16T00:13:44;100814.06;;;10.55;100.00
49779;BME280;36217;60.232;24.776;2022-10-16T00:16:12;100811.27;;;10.59;100.00
49779;BME280;36217;60.232;24.776;2022-10-16T00:18:40;100811.91;;;10.53;100.00
49779;BME280;36217;60.232;24.776;2022-10-16T00:21:10;100801.70;;;11.04;100.00
49779;BME280;36217;60.232;24.776;2022-10-16T00:23:38;100800.51;;;10.61;100.00
49779;BME280;36217;60.232;24.776;2022-10-16T00:26:08;100801.55;;;11.03;100.00
49779;BME280;36217;60.232;24.776;2022-10-16T00:28:36;100802.23;;;10.83;100.00
49779;BME280;36217;60.232;24.776;2022-10-16T00:31:05;100797.73;;;11.06;100.00
49779;BME280;36217;60.232;24.776;2022-10-16T00:33:32;100796.95;;;10.73;100.00
49779;BME280;36217;60.232;24.776;2022-10-16T00:35:59;100794.56;;;10.53;100.00
49779;BME280;36217;60.232;24.776;2022-10-16T00:38:27;100790.68;;;10.57;100.00
49779;BME280;36217;60.232;24.776;2022-10-16T00:40:54;100794.54;;;10.82;100.00
49779;BME280;36217;60.232;24.776;2022-10-16T00:43:41;100796.55;;;10.75;100.00
49779;BME280;36217;60.232;24.776;2022-10-16T00:46:15;100792.97;;;10.98;100.00
49779;BME280;36217;60.232;24.776;2022-10-16T00:48:47;100790.59;;;11.03;100.00
49779;BME280;36217;60.232;24.776;2022-10-16T00:51:18;100789.03;;;11.02;100.00
49779;BME280;36217;60.232;24.776;2022-10-16T00:53:46;100784.10;;;10.79;100.00
49779;BME280;36217;60.232;24.776;2022-10-16T00:56:13;100784.12;;;10.87;100.00
49779;BME280;36217;60.232;24.776;2022-10-16T00:58:40;100778.48;;;10.77;100.00
49779;BME280;36217;60.232;24.776;2022-10-16T01:01:07;100774.85;;;10.45;100.00
49779;BME280;36217;60.232;24.776;2022-10-16T01:03:36;100775.25;;;10.54;100.00
49779;BME280;36217;60.232;24.776;2022-10-16T01:06:13;100774.87;;;10.48;100.00
49779;BME280;36217;60.232;24.776;2022-10-16T01:08:51;100775.59;;;10.96;100.00
49779;BME280;36217;60.232;24.776;2022-10-16T01:11:28;100768.59;;;10.74;100.00
49779;BME280;36217;60.232;24.776;2022-10-16T01:14:02;100767.22;;;10.75;100.00
49779;BME280;36217;60.232;24.776;2022-10-16T01:16:38;100770.41;;;10.92;100.00
49779;BME280;36217;60.232;24.776;2022-10-16T01:19:13;100771.14;;;10.73;100.00
49779;BME280;36217;60.232;24.776;2022-10-16T01:21:45;100766.38;;;10.88;100.00
49779;BME280;36217;60.232;24.776;2022-10-16T01:24:23;100762.66;;;10.92;100.00
49779;BME280;36217;60.232;24.776;2022-10-16T01:27:11;100764.60;;;10.94;100.00
49779;BME280;36217;60.232;24.776;2022-10-16T01:29:45;100763.23;;;10.89;100.00
49779;BME280;36217;60.232;24.776;2022-10-16T01:32:22;100759.92;;;10.83;100.00
49779;BME280;36217;60.232;24.776;2022-10-16T01:34:57;100754.25;;;10.81;100.00
49779;BME280;36217;60.232;24.776;2022-10-16T01:37:32;100751.68;;;10.83;100.00
49779;BME280;36217;60.232;24.776;2022-10-16T01:40:06;100747.29;;;10.83;100.00
49779;BME280;36217;60.232;24.776;2022-10-16T01:42:39;100745.73;;;10.87;100.00
49779;BME280;36217;60.232;24.776;2022-10-16T01:45:14;100750.49;;;10.40;100.00
49779;BME280;36217;60.232;24.776;2022-10-16T01:47:43;100749.93;;;10.84;100.00
49779;BME280;36217;60.232;24.776;2022-10-16T01:50:12;100746.00;;;10.45;100.00
49779;BME280;36217;60.232;24.776;2022-10-16T01:52:45;100749.47;;;10.66;100.00
49779;BME280;36217;60.232;24.776;2022-10-16T01:55:16;100755.73;;;10.62;100.00
49779;BME280;36217;60.232;24.776;2022-10-16T01:57:47;100757.88;;;10.87;100.00
49779;BME280;36217;60.232;24.776;2022-10-16T02:00:17;100756.84;;;10.76;100.00
49779;BME280;36217;60.232;24.776;2022-10-16T02:02:50;100748.16;;;10.39;100.00
49779;BME280;36217;60.232;24.776;2022-10-16T02:05:23;100744.77;;;10.64;100.00
49779;BME280;36217;60.232;24.776;2022-10-16T02:07:53;100745.07;;;10.83;100.00
49779;BME280;36217;60.232;24.776;2022-10-16T02:10:20;100744.80;;;10.83;100.00
49779;BME280;36217;60.232;24.776;2022-10-16T02:12:50;100736.85;;;10.87;100.00
49779;BME280;36217;60.232;24.776;2022-10-16T02:15:20;100736.66;;;10.78;100.00
49779;BME280;36217;60.232;24.776;2022-10-16T02:17:48;100738.64;;;10.59;100.00
49779;BME280;36217;60.232;24.776;2022-10-16T02:20:15;100734.47;;;10.74;100.00
49779;BME280;36217;60.232;24.776;2022-10-16T02:22:44;100729.56;;;10.77;100.00
49779;BME280;36217;60.232;24.776;2022-10-16T02:25:17;100723.26;;;10.91;100.00
49779;BME280;36217;60.232;24.776;2022-10-16T02:27:52;100722.07;;;10.79;100.00
49779;BME280;36217;60.232;24.776;2022-10-16T02:30:25;100715.93;;;10.64;100.00
49779;BME280;36217;60.232;24.776;2022-10-16T02:32:55;100707.86;;;10.37;100.00
49779;BME280;36217;60.232;24.776;2022-10-16T02:35:24;100707.84;;;10.81;100.00
49779;BME280;36217;60.232;24.776;2022-10-16T02:37:52;100708.24;;;10.85;100.00
49779;BME280;36217;60.232;24.776;2022-10-16T02:40:25;100716.33;;;10.68;100.00
49779;BME280;36217;60.232;24.776;2022-10-16T02:42:54;100717.41;;;10.96;100.00
49779;BME280;36217;60.232;24.776;2022-10-16T02:45:22;100715.99;;;10.36;100.00
49779;BME280;36217;60.232;24.776;2022-10-16T02:47:49;100715.29;;;10.85;100.00
49779;BME280;36217;60.232;24.776;2022-10-16T02:50:17;100708.95;;;10.79;100.00
49779;BME280;36217;60.232;24.776;2022-10-16T02:52:44;100699.34;;;10.69;100.00
49779;BME280;36217;60.232;24.776;2022-10-16T02:55:11;100700.32;;;10.69;100.00
49779;BME280;36217;60.232;24.776;2022-10-16T02:57:39;100698.65;;;11.02;100.00
49779;BME280;36217;60.232;24.776;2022-10-16T03:00:07;100698.10;;;10.74;100.00
49779;BME280;36217;60.232;24.776;2022-10-16T03:02:34;100699.98;;;10.65;100.00
49779;BME280;36217;60.232;24.776;2022-10-16T03:05:01;100694.97;;;10.96;100.00
49779;BME280;36217;60.232;24.776;2022-10-16T03:07:34;100694.80;;;10.62;100.00
49779;BME280;36217;60.232;24.776;2022-10-16T03:10:00;100695.43;;;10.70;100.00
49779;BME280;36217;60.232;24.776;2022-10-16T03:12:27;100691.06;;;10.96;100.00
49779;BME280;36217;60.232;24.776;2022-10-16T03:14:55;100686.13;;;10.90;100.00
49779;BME280;36217;60.232;24.776;2022-10-16T03:17:22;100685.52;;;10.43;100.00
49779;BME280;36217;60.232;24.776;2022-10-16T03:19:49;100684.43;;;10.70;100.00
49779;BME280;36217;60.232;24.776;2022-10-16T03:22:16;100684.64;;;10.44;100.00
49779;BME280;36217;60.232;24.776;2022-10-16T03:24:43;100683.76;;;10.94;100.00
49779;BME280;36217;60.232;24.776;2022-10-16T03:27:10;100682.15;;;10.70;100.00
49779;BME280;36217;60.232;24.776;2022-10-16T03:29:38;100676.54;;;10.89;100.00
49779;BME280;36217;60.232;24.776;2022-10-16T03:32:05;100676.40;;;10.70;100.00
49779;BME280;36217;60.232;24.776;2022-10-16T03:34:32;100676.62;;;10.87;100.00
49779;BME280;36217;60.232;24.776;2022-10-16T03:36:59;100678.12;;;10.77;100.00
49779;BME280;36217;60.232;24.776;2022-10-16T03:39:27;100678.46;;;10.87;100.00
49779;BME280;36217;60.232;24.776;2022-10-16T03:41:54;100675.73;;;10.84;100.00
49779;BME280;36217;60.232;24.776;2022-10-16T03:44:21;100676.65;;;10.89;100.00
49779;BME280;36217;60.232;24.776;2022-10-16T03:46:48;100677.98;;;10.87;100.00
49779;BME280;36217;60.232;24.776;2022-10-16T03:49:14;100673.26;;;10.65;100.00
49779;BME280;36217;60.232;24.776;2022-10-16T03:51:41;100671.13;;;10.89;100.00
49779;BME280;36217;60.232;24.776;2022-10-16T03:54:09;100670.08;;;10.79;100.00
49779;BME280;36217;60.232;24.776;2022-10-16T03:56:36;100663.94;;;10.75;100.00
49779;BME280;36217;60.232;24.776;2022-10-16T03:59:03;100659.14;;;10.78;100.00
49779;BME280;36217;60.232;24.776;2022-10-16T04:01:30;100657.67;;;10.56;100.00
49779;BME280;36217;60.232;24.776;2022-10-16T04:03:58;100657.64;;;10.76;100.00
49779;BME280;36217;60.232;24.776;2022-10-16T04:06:25;100658.38;;;10.78;100.00
49779;BME280;36217;60.232;24.776;2022-10-16T04:08:52;100656.78;;;10.81;100.00
49779;BME280;36217;60.232;24.776;2022-10-16T04:11:19;100654.07;;;10.82;100.00
49779;BME280;36217;60.232;24.776;2022-10-16T04:13:46;100658.62;;;10.87;100.00
49779;BME280;36217;60.232;24.776;2022-10-16T04:16:13;100650.05;;;10.76;100.00
49779;BME280;36217;60.232;24.776;2022-10-16T04:18:40;100646.18;;;10.84;100.00
49779;BME280;36217;60.232;24.776;2022-10-16T04:21:07;100637.87;;;10.75;100.00
49779;BME280;36217;60.232;24.776;2022-10-16T04:23:34;100633.39;;;10.78;100.00
49779;BME280;36217;60.232;24.776;2022-10-16T04:26:01;100631.87;;;10.57;100.00
49779;BME280;36217;60.232;24.776;2022-10-16T04:28:29;100635.28;;;10.85;100.00
49779;BME280;36217;60.232;24.776;2022-10-16T04:30:56;100636.48;;;10.73;100.00
49779;BME280;36217;60.232;24.776;2022-10-16T04:33:22;100632.96;;;10.62;100.00
49779;BME280;36217;60.232;24.776;2022-10-16T04:35:56;100630.07;;;10.36;100.00
49779;BME280;36217;60.232;24.776;2022-10-16T04:38:24;100626.64;;;10.22;100.00
49779;BME280;36217;60.232;24.776;2022-10-16T04:40:51;100628.57;;;10.39;100.00
49779;BME280;36217;60.232;24.776;2022-10-16T04:43:19;100625.66;;;10.65;100.00
49779;BME280;36217;60.232;24.776;2022-10-16T04:45:46;100621.34;;;10.21;100.00
49779;BME280;36217;60.232;24.776;2022-10-16T04:48:13;100619.34;;;10.57;100.00
49779;BME280;36217;60.232;24.776;2022-10-16T04:50:39;100618.77;;;10.66;100.00
49779;BME280;36217;60.232;24.776;2022-10-16T04:53:07;100618.28;;;10.66;100.00
49779;BME280;36217;60.232;24.776;2022-10-16T04:55:35;100618.01;;;10.44;100.00
49779;BME280;36217;60.232;24.776;2022-10-16T04:58:02;100617.48;;;10.59;100.00
49779;BME280;36217;60.232;24.776;2022-10-16T05:00:29;100616.41;;;10.47;100.00
49779;BME280;36217;60.232;24.776;2022-10-16T05:03:06;100613.11;;;10.52;100.00
49779;BME280;36217;60.232;24.776;2022-10-16T05:05:33;100606.41;;;10.55;100.00
49779;BME280;36217;60.232;24.776;2022-10-16T05:08:00;100606.08;;;10.56;100.00
49779;BME280;36217;60.232;24.776;2022-10-16T05:10:32;100609.36;;;10.64;100.00
49779;BME280;36217;60.232;24.776;2022-10-16T05:12:59;100607.22;;;10.33;100.00
49779;BME280;36217;60.232;24.776;2022-10-16T05:15:36;100608.60;;;10.53;100.00
49779;BME280;36217;60.232;24.776;2022-10-16T05:18:04;100609.05;;;10.35;100.00
49779;BME280;36217;60.232;24.776;2022-10-16T05:20:30;100602.86;;;10.69;100.00
49779;BME280;36217;60.232;24.776;2022-10-16T05:22:58;100605.05;;;10.73;100.00
49779;BME280;36217;60.232;24.776;2022-10-16T05:25:25;100594.12;;;10.38;100.00
49779;BME280;36217;60.232;24.776;2022-10-16T05:27:52;100592.23;;;10.65;100.00
49779;BME280;36217;60.232;24.776;2022-10-16T05:30:19;100596.32;;;10.56;100.00
49779;BME280;36217;60.232;24.776;2022-10-16T05:32:47;100588.43;;;10.65;100.00
49779;BME280;36217;60.232;24.776;2022-10-16T05:35:15;100590.76;;;10.71;100.00
49779;BME280;36217;60.232;24.776;2022-10-16T05:37:42;100591.55;;;10.79;100.00
49779;BME280;36217;60.232;24.776;2022-10-16T05:40:10;100596.54;;;10.28;100.00
49779;BME280;36217;60.232;24.776;2022-10-16T05:42:43;100597.49;;;10.59;100.00
49779;BME280;36217;60.232;24.776;2022-10-16T05:45:16;100595.59;;;10.54;100.00
49779;BME280;36217;60.232;24.776;2022-10-16T05:47:43;100595.17;;;10.68;100.00
49779;BME280;36217;60.232;24.776;2022-10-16T05:50:12;100592.86;;;10.67;100.00
49779;BME280;36217;60.232;24.776;2022-10-16T05:52:39;100596.87;;;10.72;100.00
49779;BME280;36217;60.232;24.776;2022-10-16T05:55:06;100601.96;;;10.50;100.00
49779;BME280;36217;60.232;24.776;2022-10-16T05:57:34;100601.86;;;10.44;100.00
49779;BME280;36217;60.232;24.776;2022-10-16T06:00:01;100597.76;;;10.42;100.00
49779;BME280;36217;60.232;24.776;2022-10-16T06:02:28;100597.13;;;10.51;100.00
49779;BME280;36217;60.232;24.776;2022-10-16T06:04:56;100600.20;;;10.70;100.00
49779;BME280;36217;60.232;24.776;2022-10-16T06:07:23;100597.68;;;10.67;100.00
49779;BME280;36217;60.232;24.776;2022-10-16T06:09:51;100602.18;;;10.45;100.00
49779;BME280;36217;60.232;24.776;2022-10-16T06:12:23;100608.87;;;10.70;100.00
49779;BME280;36217;60.232;24.776;2022-10-16T06:14:50;100610.18;;;10.80;100.00
49779;BME280;36217;60.232;24.776;2022-10-16T06:17:17;100610.69;;;10.60;100.00
49779;BME280;36217;60.232;24.776;2022-10-16T06:19:43;100610.54;;;10.92;100.00
49779;BME280;36217;60.232;24.776;2022-10-16T06:22:11;100608.73;;;10.56;100.00
49779;BME280;36217;60.232;24.776;2022-10-16T06:24:37;100611.05;;;11.12;100.00
49779;BME280;36217;60.232;24.776;2022-10-16T06:27:06;100608.83;;;10.40;100.00
49779;BME280;36217;60.232;24.776;2022-10-16T06:29:33;100614.26;;;10.77;100.00
49779;BME280;36217;60.232;24.776;2022-10-16T06:32:00;100615.57;;;11.03;100.00
49779;BME280;36217;60.232;24.776;2022-10-16T06:34:27;100619.96;;;10.86;100.00
49779;BME280;36217;60.232;24.776;2022-10-16T06:36:53;100623.31;;;11.10;100.00
49779;BME280;36217;60.232;24.776;2022-10-16T06:39:20;100622.67;;;10.76;100.00
49779;BME280;36217;60.232;24.776;2022-10-16T06:41:48;100620.59;;;10.66;100.00
49779;BME280;36217;60.232;24.776;2022-10-16T06:44:14;100622.88;;;10.92;100.00
49779;BME280;36217;60.232;24.776;2022-10-16T06:46:42;100625.13;;;10.73;100.00
49779;BME280;36217;60.232;24.776;2022-10-16T06:49:09;100623.06;;;10.73;100.00
49779;BME280;36217;60.232;24.776;2022-10-16T06:51:35;100623.56;;;10.99;100.00
49779;BME280;36217;60.232;24.776;2022-10-16T06:54:03;100617.08;;;11.07;100.00
49779;BME280;36217;60.232;24.776;2022-10-16T06:56:32;100620.03;;;10.73;100.00
49779;BME280;36217;60.232;24.776;2022-10-16T06:59:00;100619.47;;;11.33;100.00
49779;BME280;36217;60.232;24.776;2022-10-16T07:01:27;100620.74;;;11.36;100.00
49779;BME280;36217;60.232;24.776;2022-10-16T07:03:55;100616.46;;;10.87;100.00
49779;BME280;36217;60.232;24.776;2022-10-16T07:06:24;100618.07;;;11.15;100.00
49779;BME280;36217;60.232;24.776;2022-10-16T07:08:52;100616.92;;;11.16;100.00
49779;BME280;36217;60.232;24.776;2022-10-16T07:11:21;100621.21;;;10.94;100.00
49779;BME280;36217;60.232;24.776;2022-10-16T07:13:53;100618.29;;;11.33;100.00
49779;BME280;36217;60.232;24.776;2022-10-16T07:16:22;100620.75;;;11.05;100.00
49779;BME280;36217;60.232;24.776;2022-10-16T07:18:49;100617.90;;;11.39;100.00
49779;BME280;36217;60.232;24.776;2022-10-16T07:21:18;100620.68;;;11.29;100.00
49779;BME280;36217;60.232;24.776;2022-10-16T07:23:49;100613.71;;;11.22;100.00
49779;BME280;36217;60.232;24.776;2022-10-16T07:26:16;100613.43;;;11.28;100.00
49779;BME280;36217;60.232;24.776;2022-10-16T07:28:43;100614.81;;;11.21;100.00
49779;BME280;36217;60.232;24.776;2022-10-16T07:31:12;100617.66;;;11.59;100.00
49779;BME280;36217;60.232;24.776;2022-10-16T07:33:41;100617.23;;;11.32;100.00
49779;BME280;36217;60.232;24.776;2022-10-16T07:36:08;100616.09;;;11.32;100.00
49779;BME280;36217;60.232;24.776;2022-10-16T07:38:35;100619.54;;;11.47;100.00
49779;BME280;36217;60.232;24.776;2022-10-16T07:41:04;100624.84;;;11.40;100.00
49779;BME280;36217;60.232;24.776;2022-10-16T07:43:32;100627.97;;;11.58;100.00
49779;BME280;36217;60.232;24.776;2022-10-16T07:46:00;100626.14;;;11.53;100.00
49779;BME280;36217;60.232;24.776;2022-10-16T07:48:34;100622.87;;;11.68;100.00
49779;BME280;36217;60.232;24.776;2022-10-16T07:51:03;100627.80;;;11.51;100.00
49779;BME280;36217;60.232;24.776;2022-10-16T07:53:31;100628.71;;;11.65;100.00
49779;BME280;36217;60.232;24.776;2022-10-16T07:55:59;100631.12;;;11.37;100.00
49779;BME280;36217;60.232;24.776;2022-10-16T07:58:26;100626.77;;;11.46;100.00
49779;BME280;36217;60.232;24.776;2022-10-16T08:00:54;100631.75;;;11.47;100.00
49779;BME280;36217;60.232;24.776;2022-10-16T08:03:21;100630.18;;;11.55;100.00
49779;BME280;36217;60.232;24.776;2022-10-16T08:05:48;100625.68;;;11.50;100.00
49779;BME280;36217;60.232;24.776;2022-10-16T08:08:16;100625.32;;;11.45;100.00
49779;BME280;36217;60.232;24.776;2022-10-16T08:10:44;100627.08;;;11.47;100.00
49779;BME280;36217;60.232;24.776;2022-10-16T08:13:11;100626.94;;;11.45;100.00
49779;BME280;36217;60.232;24.776;2022-10-16T08:15:37;100625.63;;;11.42;100.00
49779;BME280;36217;60.232;24.776;2022-10-16T08:18:05;100629.46;;;11.44;100.00
49779;BME280;36217;60.232;24.776;2022-10-16T08:20:33;100629.35;;;11.74;100.00
49779;BME280;36217;60.232;24.776;2022-10-16T08:23:00;100628.72;;;11.51;100.00
49779;BME280;36217;60.232;24.776;2022-10-16T08:25:28;100625.80;;;11.72;100.00
49779;BME280;36217;60.232;24.776;2022-10-16T08:27:55;100632.59;;;11.68;100.00
49779;BME280;36217;60.232;24.776;2022-10-16T08:30:23;100633.79;;;11.67;100.00
49779;BME280;36217;60.232;24.776;2022-10-16T08:32:50;100635.12;;;11.42;100.00
49779;BME280;36217;60.232;24.776;2022-10-16T08:35:18;100633.88;;;11.77;100.00
49779;BME280;36217;60.232;24.776;2022-10-16T08:37:45;100636.09;;;11.43;100.00
49779;BME280;36217;60.232;24.776;2022-10-16T08:40:19;100635.27;;;11.43;100.00
49779;BME280;36217;60.232;24.776;2022-10-16T08:42:58;100633.44;;;11.95;100.00
49779;BME280;36217;60.232;24.776;2022-10-16T08:45:34;100636.16;;;11.55;100.00
49779;BME280;36217;60.232;24.776;2022-10-16T08:48:14;100638.82;;;11.99;100.00
49779;BME280;36217;60.232;24.776;2022-10-16T08:50:45;100638.48;;;11.52;100.00
49779;BME280;36217;60.232;24.776;2022-10-16T08:53:17;100641.43;;;11.55;100.00
49779;BME280;36217;60.232;24.776;2022-10-16T08:55:49;100641.32;;;11.63;100.00
49779;BME280;36217;60.232;24.776;2022-10-16T08:58:18;100644.31;;;11.63;100.00
49779;BME280;36217;60.232;24.776;2022-10-16T09:00:47;100644.19;;;11.59;100.00
49779;BME280;36217;60.232;24.776;2022-10-16T09:03:28;100648.22;;;11.76;100.00
49779;BME280;36217;60.232;24.776;2022-10-16T09:06:13;100645.30;;;11.75;100.00
49779;BME280;36217;60.232;24.776;2022-10-16T09:08:51;100645.07;;;11.67;100.00
49779;BME280;36217;60.232;24.776;2022-10-16T09:11:24;100650.78;;;11.70;100.00
49779;BME280;36217;60.232;24.776;2022-10-16T09:14:01;100644.68;;;11.68;100.00
49779;BME280;36217;60.232;24.776;2022-10-16T09:16:35;100648.64;;;11.41;100.00
49779;BME280;36217;60.232;24.776;2022-10-16T09:19:12;100642.71;;;12.02;100.00
49779;BME280;36217;60.232;24.776;2022-10-16T09:21:44;100646.35;;;11.93;100.00
49779;BME280;36217;60.232;24.776;2022-10-16T09:24:14;100646.47;;;11.71;100.00
49779;BME280;36217;60.232;24.776;2022-10-16T09:26:43;100642.90;;;11.83;100.00
49779;BME280;36217;60.232;24.776;2022-10-16T09:29:11;100643.06;;;12.02;100.00
49779;BME280;36217;60.232;24.776;2022-10-16T09:31:39;100642.19;;;11.83;100.00
49779;BME280;36217;60.232;24.776;2022-10-16T09:34:19;100642.08;;;11.57;100.00
49779;BME280;36217;60.232;24.776;2022-10-16T09:36:48;100645.19;;;11.78;100.00
49779;BME280;36217;60.232;24.776;2022-10-16T09:39:16;100642.46;;;12.25;100.00
49779;BME280;36217;60.232;24.776;2022-10-16T09:41:44;100649.27;;;12.32;100.00
49779;BME280;36217;60.232;24.776;2022-10-16T09:44:19;100647.19;;;12.07;100.00
49779;BME280;36217;60.232;24.776;2022-10-16T09:46:48;100639.81;;;12.33;100.00
49779;BME280;36217;60.232;24.776;2022-10-16T09:49:21;100628.32;;;12.13;100.00
49779;BME280;36217;60.232;24.776;2022-10-16T09:51:49;100625.32;;;12.46;100.00
49779;BME280;36217;60.232;24.776;2022-10-16T09:54:19;100622.75;;;12.43;100.00
49779;BME280;36217;60.232;24.776;2022-10-16T09:56:47;100622.87;;;12.43;100.00
49779;BME280;36217;60.232;24.776;2022-10-16T09:59:16;100624.68;;;12.53;100.00
49779;BME280;36217;60.232;24.776;2022-10-16T10:01:47;100622.29;;;12.49;100.00
49779;BME280;36217;60.232;24.776;2022-10-16T10:04:14;100626.35;;;12.61;100.00
49779;BME280;36217;60.232;24.776;2022-10-16T10:06:44;100622.45;;;12.41;100.00
49779;BME280;36217;60.232;24.776;2022-10-16T10:09:18;100618.48;;;12.49;100.00
49779;BME280;36217;60.232;24.776;2022-10-16T10:11:50;100620.31;;;12.57;100.00
49779;BME280;36217;60.232;24.776;2022-10-16T10:14:22;100621.15;;;13.27;100.00
49779;BME280;36217;60.232;24.776;2022-10-16T10:16:50;100620.55;;;12.88;100.00
49779;BME280;36217;60.232;24.776;2022-10-16T10:19:20;100618.74;;;12.63;100.00
49779;BME280;36217;60.232;24.776;2022-10-16T10:21:48;100616.64;;;12.88;100.00
49779;BME280;36217;60.232;24.776;2022-10-16T10:24:17;100619.67;;;12.70;100.00
49779;BME280;36217;60.232;24.776;2022-10-16T10:26:49;100618.25;;;12.67;100.00
49779;BME280;36217;60.232;24.776;2022-10-16T10:29:28;100609.38;;;12.86;100.00
49779;BME280;36217;60.232;24.776;2022-10-16T10:32:08;100607.07;;;12.72;100.00
49779;BME280;36217;60.232;24.776;2022-10-16T10:34:49;100609.18;;;12.70;100.00
49779;BME280;36217;60.232;24.776;2022-10-16T10:37:34;100606.38;;;12.72;100.00
49779;BME280;36217;60.232;24.776;2022-10-16T10:40:15;100605.19;;;12.71;100.00
49779;BME280;36217;60.232;24.776;2022-10-16T10:42:47;100599.80;;;12.68;100.00
49779;BME280;36217;60.232;24.776;2022-10-16T10:45:24;100588.98;;;12.65;100.00
49779;BME280;36217;60.232;24.776;2022-10-16T10:48:04;100593.26;;;12.69;100.00
49779;BME280;36217;60.232;24.776;2022-10-16T10:50:41;100590.63;;;12.70;100.00
49779;BME280;36217;60.232;24.776;2022-10-16T10:53:19;100589.99;;;12.73;100.00
49779;BME280;36217;60.232;24.776;2022-10-16T10:55:53;100584.73;;;12.65;100.00
49779;BME280;36217;60.232;24.776;2022-10-16T10:59:53;100579.33;;;12.85;100.00
49779;BME280;36217;60.232;24.776;2022-10-16T11:02:31;100579.81;;;12.67;100.00
49779;BME280;36217;60.232;24.776;2022-10-16T11:05:18;100577.12;;;12.59;100.00
49779;BME280;36217;60.232;24.776;2022-10-16T11:07:53;100577.13;;;12.38;100.00
49779;BME280;36217;60.232;24.776;2022-10-16T11:10:24;100575.82;;;12.41;100.00
49779;BME280;36217;60.232;24.776;2022-10-16T11:12:56;100575.20;;;12.76;100.00
49779;BME280;36217;60.232;24.776;2022-10-16T11:15:28;100570.32;;;12.62;100.00
49779;BME280;36217;60.232;24.776;2022-10-16T11:18:00;100571.74;;;12.65;100.00
49779;BME280;36217;60.232;24.776;2022-10-16T11:20:34;100570.07;;;12.58;100.00
49779;BME280;36217;60.232;24.776;2022-10-16T11:23:10;100564.10;;;12.73;100.00
49779;BME280;36217;60.232;24.776;2022-10-16T11:25:40;100560.65;;;12.77;100.00
49779;BME280;36217;60.232;24.776;2022-10-16T11:28:12;100561.91;;;12.68;100.00
49779;BME280;36217;60.232;24.776;2022-10-16T11:30:44;100560.34;;;12.54;100.00
49779;BME280;36217;60.232;24.776;2022-10-16T11:33:25;100553.89;;;12.51;100.00
49779;BME280;36217;60.232;24.776;2022-10-16T11:35:57;100543.97;;;12.44;100.00
49779;BME280;36217;60.232;24.776;2022-10-16T11:38:30;100544.13;;;12.31;100.00
49779;BME280;36217;60.232;24.776;2022-10-16T11:41:15;100548.26;;;12.78;100.00
49779;BME280;36217;60.232;24.776;2022-10-16T11:43:50;100540.84;;;14.73;100.00
49779;BME280;36217;60.232;24.776;2022-10-16T11:46:21;100532.85;;;14.86;100.00
49779;BME280;36217;60.232;24.776;2022-10-16T11:48:55;100529.17;;;15.48;100.00
49779;BME280;36217;60.232;24.776;2022-10-16T11:51:32;100531.80;;;13.42;100.00
49779;BME280;36217;60.232;24.776;2022-10-16T11:54:05;100530.56;;;13.05;100.00
49779;BME280;36217;60.232;24.776;2022-10-16T11:56:38;100522.76;;;11.75;100.00
49779;BME280;36217;60.232;24.776;2022-10-16T11:59:13;100528.29;;;11.36;100.00
49779;BME280;36217;60.232;24.776;2022-10-16T12:01:45;100528.75;;;11.34;100.00
49779;BME280;36217;60.232;24.776;2022-10-16T12:04:19;100522.97;;;11.42;100.00
49779;BME280;36217;60.232;24.776;2022-10-16T12:06:52;100518.02;;;10.78;100.00
49779;BME280;36217;60.232;24.776;2022-10-16T12:09:25;100518.34;;;10.59;100.00
49779;BME280;36217;60.232;24.776;2022-10-16T12:11:52;100512.51;;;10.75;100.00
49779;BME280;36217;60.232;24.776;2022-10-16T12:14:34;100512.34;;;10.60;100.00
49779;BME280;36217;60.232;24.776;2022-10-16T12:17:03;100510.17;;;10.61;100.00
49779;BME280;36217;60.232;24.776;2022-10-16T12:19:31;100503.83;;;10.09;100.00
49779;BME280;36217;60.232;24.776;2022-10-16T12:22:00;100507.59;;;9.74;100.00
49779;BME280;36217;60.232;24.776;2022-10-16T12:24:34;100500.71;;;9.62;100.00
49779;BME280;36217;60.232;24.776;2022-10-16T12:27:04;100501.46;;;9.82;100.00
49779;BME280;36217;60.232;24.776;2022-10-16T12:29:36;100498.17;;;10.05;100.00
49779;BME280;36217;60.232;24.776;2022-10-16T12:34:47;100486.99;;;9.84;100.00
49779;BME280;36217;60.232;24.776;2022-10-16T12:37:21;100478.45;;;10.35;100.00
49779;BME280;36217;60.232;24.776;2022-10-16T12:39:50;100474.68;;;10.05;100.00
49779;BME280;36217;60.232;24.776;2022-10-16T12:42:22;100471.27;;;10.16;100.00
49779;BME280;36217;60.232;24.776;2022-10-16T12:44:50;100470.79;;;10.09;100.00
49779;BME280;36217;60.232;24.776;2022-10-16T12:47:22;100471.80;;;10.17;100.00
49779;BME280;36217;60.232;24.776;2022-10-16T12:49:52;100469.17;;;10.03;100.00